createdAt,value
2024-02-24T00:00:20.341Z,3.76
2024-02-24T00:02:46.879Z,3.75
2024-02-24T00:05:13.423Z,3.74
2024-02-24T00:07:40.096Z,3.72
2024-02-24T00:10:07.220Z,3.74
2024-02-24T00:12:33.818Z,3.73
2024-02-24T00:15:00.572Z,3.73
2024-02-24T00:17:27.153Z,3.74
2024-02-24T00:19:53.699Z,3.76
2024-02-24T00:22:20.198Z,3.77
2024-02-24T00:24:46.695Z,3.75
2024-02-24T00:27:13.130Z,3.73
2024-02-24T00:29:39.650Z,3.73
2024-02-24T00:32:06.838Z,3.72
2024-02-24T00:34:33.392Z,3.74
2024-02-24T00:36:59.928Z,3.74
2024-02-24T00:39:27.621Z,3.73
2024-02-24T00:41:54.335Z,3.70
2024-02-24T00:44:20.796Z,3.68
2024-02-24T00:46:47.250Z,3.66
2024-02-24T00:49:13.753Z,3.65
2024-02-24T00:51:42.409Z,3.62
2024-02-24T00:54:09.504Z,3.59
2024-02-24T00:56:39.144Z,3.57
2024-02-24T00:59:06.315Z,3.58
2024-02-24T01:01:32.781Z,3.58
2024-02-24T01:03:59.345Z,3.56
2024-02-24T01:06:25.819Z,3.53
2024-02-24T01:08:52.358Z,3.50
2024-02-24T01:11:18.935Z,3.50
2024-02-24T01:13:45.509Z,3.48
2024-02-24T01:16:12.162Z,3.43
2024-02-24T01:18:38.673Z,3.41
2024-02-24T01:21:05.859Z,3.41
2024-02-24T01:23:33.775Z,3.40
2024-02-24T01:26:00.240Z,3.39
2024-02-24T01:28:26.715Z,3.38
2024-02-24T01:30:53.183Z,3.35
2024-02-24T01:33:19.727Z,3.33
2024-02-24T01:35:46.314Z,3.30
2024-02-24T01:38:12.938Z,3.29
2024-02-24T01:40:39.446Z,3.27
2024-02-24T01:43:23.468Z,3.24
2024-02-24T01:45:49.995Z,3.24
2024-02-24T01:48:16.841Z,3.23
2024-02-24T01:50:46.494Z,3.23
2024-02-24T01:53:13.558Z,3.22
2024-02-24T01:55:40.235Z,3.24
2024-02-24T01:58:08.057Z,3.23
2024-02-24T02:00:35.728Z,3.21
2024-02-24T02:03:02.439Z,3.20
2024-02-24T02:05:29.121Z,3.19
2024-02-24T02:07:56.222Z,3.18
2024-02-24T02:10:22.729Z,3.16
2024-02-24T02:12:49.274Z,3.15
2024-02-24T02:15:15.899Z,3.13
2024-02-24T02:17:42.618Z,3.11
2024-02-24T02:20:09.418Z,3.09
2024-02-24T02:22:36.690Z,3.05
2024-02-24T02:25:03.375Z,3.03
2024-02-24T02:27:29.816Z,3.03
2024-02-24T02:29:56.330Z,3.02
2024-02-24T02:32:22.964Z,3.00
2024-02-24T02:34:49.411Z,2.99
2024-02-24T02:37:15.876Z,2.99
2024-02-24T02:39:42.331Z,2.99
2024-02-24T02:42:09.263Z,3.00
2024-02-24T02:44:35.760Z,2.98
2024-02-24T02:47:08.133Z,2.99
2024-02-24T02:49:41.011Z,3.02
2024-02-24T02:52:07.510Z,3.02
2024-02-24T02:54:33.998Z,3.00
2024-02-24T02:57:00.615Z,3.01
2024-02-24T02:59:27.115Z,3.00
2024-02-24T03:01:53.662Z,3.02
2024-02-24T03:04:20.331Z,3.01
2024-02-24T03:06:46.947Z,3.00
2024-02-24T03:09:13.665Z,3.03
2024-02-24T03:11:40.664Z,3.03
2024-02-24T03:14:07.210Z,3.04
2024-02-24T03:16:33.674Z,3.08
2024-02-24T03:19:00.159Z,3.13
2024-02-24T03:21:32.344Z,3.18
2024-02-24T03:24:02.211Z,3.21
2024-02-24T03:26:29.633Z,3.23
2024-02-24T03:28:56.105Z,3.25
2024-02-24T03:31:22.637Z,3.26
2024-02-24T03:33:49.233Z,3.27
2024-02-24T03:36:17.571Z,3.27
2024-02-24T03:38:44.198Z,3.28
2024-02-24T03:41:11.484Z,3.30
2024-02-24T03:43:39.544Z,3.31
2024-02-24T03:46:07.372Z,3.32
2024-02-24T03:48:34.420Z,3.33
2024-02-24T03:51:01.554Z,3.32
2024-02-24T03:53:29.518Z,3.29
2024-02-24T03:55:56.174Z,3.32
2024-02-24T03:58:25.502Z,3.29
2024-02-24T04:00:52.732Z,3.28
2024-02-24T04:03:19.502Z,3.26
2024-02-24T04:05:47.585Z,3.25
2024-02-24T04:08:14.791Z,3.24
2024-02-24T04:10:45.406Z,3.22
2024-02-24T04:13:12.114Z,3.20
2024-02-24T04:15:38.788Z,3.19
2024-02-24T04:18:06.218Z,3.15
2024-02-24T04:20:33.015Z,3.12
2024-02-24T04:22:59.544Z,3.10
2024-02-24T04:25:25.987Z,3.07
2024-02-24T04:27:52.486Z,3.07
2024-02-24T04:30:19.061Z,3.05
2024-02-24T04:32:45.652Z,3.05
2024-02-24T04:35:12.405Z,3.02
2024-02-24T04:37:39.731Z,2.99
2024-02-24T04:40:07.176Z,2.98
2024-02-24T04:42:33.661Z,2.94
2024-02-24T04:45:00.212Z,2.90
2024-02-24T04:47:29.475Z,2.89
2024-02-24T04:49:56.786Z,2.88
2024-02-24T04:52:23.387Z,2.84
2024-02-24T04:54:50.050Z,2.82
2024-02-24T04:57:16.602Z,2.81
2024-02-24T04:59:43.103Z,2.77
2024-02-24T05:02:09.638Z,2.76
2024-02-24T05:04:36.195Z,2.75
2024-02-24T05:07:02.705Z,2.76
2024-02-24T05:09:29.342Z,2.76
2024-02-24T05:11:55.831Z,2.75
2024-02-24T05:14:22.320Z,2.74
2024-02-24T05:16:48.807Z,2.75
2024-02-24T05:19:15.420Z,2.73
2024-02-24T05:21:42.075Z,2.74
2024-02-24T05:24:08.562Z,2.70
2024-02-24T05:26:35.109Z,2.69
2024-02-24T05:29:01.603Z,2.68
2024-02-24T05:31:28.152Z,2.65
2024-02-24T05:33:55.266Z,2.66
2024-02-24T05:36:21.811Z,2.67
2024-02-24T05:38:48.473Z,2.67
2024-02-24T05:41:15.053Z,2.68
2024-02-24T05:43:41.566Z,2.72
2024-02-24T05:46:08.200Z,2.77
2024-02-24T05:48:35.691Z,2.78
2024-02-24T05:51:10.317Z,2.82
2024-02-24T05:53:37.811Z,2.88
2024-02-24T05:56:05.204Z,2.89
2024-02-24T05:58:32.036Z,2.92
2024-02-24T06:00:58.605Z,2.96
2024-02-24T06:03:27.016Z,2.97
2024-02-24T06:05:53.827Z,3.00
2024-02-24T06:08:20.499Z,3.04
2024-02-24T06:10:48.128Z,3.05
2024-02-24T06:13:14.958Z,3.13
2024-02-24T06:15:41.599Z,3.17
2024-02-24T06:18:08.362Z,3.20
2024-02-24T06:20:34.968Z,3.23
2024-02-24T06:23:01.489Z,3.26
2024-02-24T06:25:27.972Z,3.29
2024-02-24T06:27:54.450Z,3.32
2024-02-24T06:30:21.118Z,3.35
2024-02-24T06:32:47.704Z,3.37
2024-02-24T06:35:14.363Z,3.40
2024-02-24T06:37:40.994Z,3.43
2024-02-24T06:40:10.687Z,3.45
2024-02-24T06:42:38.491Z,3.46
2024-02-24T06:45:05.350Z,3.46
2024-02-24T06:47:31.894Z,3.46
2024-02-24T06:49:58.499Z,3.50
2024-02-24T06:52:24.984Z,3.51
2024-02-24T06:54:52.752Z,3.53
2024-02-24T06:57:19.289Z,3.57
2024-02-24T06:59:48.444Z,3.58
2024-02-24T07:02:15.346Z,3.60
2024-02-24T07:04:43.837Z,3.62
2024-02-24T07:07:10.755Z,3.66
2024-02-24T07:09:37.633Z,3.71
2024-02-24T07:12:04.657Z,3.73
2024-02-24T07:14:31.789Z,3.79
2024-02-24T07:16:58.317Z,3.84
2024-02-24T07:19:24.796Z,3.87
2024-02-24T07:21:51.246Z,3.91
2024-02-24T07:24:17.775Z,3.97
2024-02-24T07:26:49.099Z,4.03
2024-02-24T07:29:17.233Z,4.07
2024-02-24T07:31:43.740Z,4.11
2024-02-24T07:34:10.341Z,4.14
2024-02-24T07:36:36.976Z,4.18
2024-02-24T07:39:05.309Z,4.18
2024-02-24T07:41:32.896Z,4.20
2024-02-24T07:43:59.377Z,4.24
2024-02-24T07:46:32.454Z,4.24
2024-02-24T07:49:00.534Z,4.28
2024-02-24T07:51:27.842Z,4.32
2024-02-24T07:53:55.045Z,4.36
2024-02-24T07:56:22.008Z,4.35
2024-02-24T07:58:49.367Z,4.40
2024-02-24T08:01:16.139Z,4.43
2024-02-24T08:03:42.911Z,4.44
2024-02-24T08:06:09.501Z,4.45
2024-02-24T08:08:37.866Z,4.48
2024-02-24T08:11:05.837Z,4.51
2024-02-24T08:13:33.096Z,4.54
2024-02-24T08:16:05.862Z,4.57
2024-02-24T08:18:32.413Z,4.62
2024-02-24T08:21:02.845Z,4.68
2024-02-24T08:23:29.500Z,4.73
2024-02-24T08:25:58.022Z,4.76
2024-02-24T08:28:25.285Z,4.83
2024-02-24T08:30:51.748Z,4.92
2024-02-24T08:33:23.791Z,4.99
2024-02-24T08:35:51.387Z,5.03
2024-02-24T08:38:18.560Z,5.13
2024-02-24T08:40:45.900Z,5.16
2024-02-24T08:43:12.553Z,5.26
2024-02-24T08:45:39.084Z,5.36
2024-02-24T08:48:06.313Z,5.44
2024-02-24T08:50:33.002Z,5.47
2024-02-24T08:52:59.561Z,5.52
2024-02-24T08:55:26.044Z,5.55
2024-02-24T08:57:52.551Z,5.54
2024-02-24T09:00:19.531Z,5.56
2024-02-24T09:02:46.249Z,5.54
2024-02-24T09:05:12.907Z,5.52
2024-02-24T09:07:39.478Z,5.47
2024-02-24T09:10:08.980Z,5.32
2024-02-24T09:12:35.883Z,5.10
2024-02-24T09:15:02.560Z,4.82
2024-02-24T09:17:30.245Z,4.64
2024-02-24T09:19:56.787Z,4.53
2024-02-24T09:22:23.289Z,4.46
2024-02-24T09:24:49.829Z,4.43
2024-02-24T09:27:16.460Z,4.46
2024-02-24T09:29:43.008Z,4.53
2024-02-24T09:32:09.563Z,4.63
2024-02-24T09:34:36.164Z,4.85
2024-02-24T09:37:04.455Z,5.13
2024-02-24T09:39:31.111Z,5.41
2024-02-24T09:42:01.501Z,5.54
2024-02-24T09:44:30.568Z,5.57
2024-02-24T09:46:58.979Z,5.49
2024-02-24T09:49:33.591Z,5.56
2024-02-24T09:52:00.742Z,5.77
2024-02-24T09:54:30.250Z,5.99
2024-02-24T09:56:57.521Z,6.12
2024-02-24T09:59:26.101Z,6.14
2024-02-24T10:01:52.866Z,6.17
2024-02-24T10:04:20.776Z,6.04
2024-02-24T10:06:47.339Z,5.98
2024-02-24T10:09:13.941Z,6.02
2024-02-24T10:11:41.490Z,5.91
2024-02-24T10:14:08.948Z,5.85
2024-02-24T10:16:39.253Z,5.77
2024-02-24T10:19:07.267Z,5.69
2024-02-24T10:21:34.675Z,5.74
2024-02-24T10:24:01.969Z,5.71
2024-02-24T10:26:28.860Z,5.69
2024-02-24T10:28:55.539Z,5.71
2024-02-24T10:31:27.917Z,5.67
2024-02-24T10:33:56.035Z,5.66
2024-02-24T10:36:23.318Z,5.68
2024-02-24T10:38:55.983Z,5.63
2024-02-24T10:41:26.649Z,5.62
2024-02-24T10:44:06.495Z,5.61
2024-02-24T10:46:42.224Z,5.58
2024-02-24T10:49:08.991Z,5.55
2024-02-24T10:51:38.133Z,5.54
2024-02-24T10:54:13.514Z,5.47
2024-02-24T10:56:41.047Z,5.46
2024-02-24T10:59:09.129Z,5.44
2024-02-24T11:01:43.759Z,5.49
2024-02-24T11:04:12.488Z,5.55
2024-02-24T11:06:53.120Z,5.58
2024-02-24T11:09:39.564Z,5.60
2024-02-24T11:12:08.952Z,5.62
2024-02-24T11:14:41.698Z,5.63
2024-02-24T11:17:10.521Z,5.67
2024-02-24T11:19:43.873Z,5.71
2024-02-24T11:22:28.519Z,5.71
2024-02-24T11:25:03.571Z,5.78
2024-02-24T11:27:32.027Z,5.75
2024-02-24T11:29:59.889Z,5.77
2024-02-24T11:32:27.056Z,5.81
2024-02-24T11:34:56.774Z,5.78
2024-02-24T11:37:23.664Z,5.77
2024-02-24T11:39:50.320Z,5.74
2024-02-24T11:42:16.885Z,5.70
2024-02-24T11:44:48.079Z,5.64
2024-02-24T11:47:19.332Z,5.59
2024-02-24T11:49:48.331Z,5.55
2024-02-24T11:52:16.642Z,5.51
2024-02-24T11:54:46.785Z,5.44
2024-02-24T11:57:13.989Z,5.38
2024-02-24T11:59:41.776Z,5.33
2024-02-24T12:02:08.337Z,5.27
2024-02-24T12:04:35.107Z,5.28
2024-02-24T12:07:03.071Z,5.22
2024-02-24T12:09:30.273Z,5.23
2024-02-24T12:11:57.964Z,5.17
2024-02-24T12:14:28.158Z,5.08
2024-02-24T12:16:57.763Z,4.99
2024-02-24T12:19:26.357Z,4.82
2024-02-24T12:21:52.918Z,4.73
2024-02-24T12:24:27.524Z,4.74
2024-02-24T12:26:54.091Z,4.79
2024-02-24T12:29:21.160Z,4.82
2024-02-24T12:31:47.599Z,4.79
2024-02-24T12:34:14.214Z,4.79
2024-02-24T12:36:40.855Z,4.79
2024-02-24T12:39:08.513Z,4.80
2024-02-24T12:41:35.102Z,4.82
2024-02-24T12:44:02.540Z,4.85
2024-02-24T12:46:29.007Z,4.86
2024-02-24T12:48:56.115Z,4.87
2024-02-24T12:51:22.785Z,4.93
2024-02-24T12:53:49.532Z,4.96
2024-02-24T12:56:16.027Z,4.96
2024-02-24T12:58:44.840Z,4.98
2024-02-24T13:01:11.491Z,5.00
2024-02-24T13:03:37.994Z,5.03
2024-02-24T13:06:04.950Z,5.08
2024-02-24T13:08:31.532Z,5.07
2024-02-24T13:10:58.948Z,5.10
2024-02-24T13:13:25.560Z,5.07
2024-02-24T13:15:52.091Z,5.06
2024-02-24T13:18:19.477Z,5.02
2024-02-24T13:20:46.193Z,4.98
2024-02-24T13:23:12.804Z,4.93
2024-02-24T13:25:41.400Z,4.90
2024-02-24T13:28:09.254Z,4.93
2024-02-24T13:30:35.913Z,5.01
2024-02-24T13:33:02.873Z,5.11
2024-02-24T13:35:29.493Z,5.22
2024-02-24T13:37:56.089Z,5.29
2024-02-24T13:40:22.767Z,5.33
2024-02-24T13:42:49.367Z,5.41
2024-02-24T13:45:16.104Z,5.51
2024-02-24T13:47:42.736Z,5.59
2024-02-24T13:50:09.466Z,5.65
2024-02-24T13:52:36.353Z,5.78
2024-02-24T13:55:02.906Z,5.81
2024-02-24T13:57:29.480Z,5.82
2024-02-24T13:59:56.694Z,5.85
2024-02-24T14:02:25.757Z,5.78
2024-02-24T14:04:52.265Z,5.81
2024-02-24T14:07:18.841Z,5.80
2024-02-24T14:09:45.397Z,5.75
2024-02-24T14:12:11.965Z,5.70
2024-02-24T14:14:38.762Z,5.62
2024-02-24T14:17:05.599Z,5.62
2024-02-24T14:19:33.552Z,5.64
2024-02-24T14:22:00.667Z,5.68
2024-02-24T14:24:27.395Z,5.64
2024-02-24T14:26:55.217Z,5.61
2024-02-24T14:29:22.006Z,5.59
2024-02-24T14:31:48.521Z,5.58
2024-02-24T14:34:15.099Z,5.62
2024-02-24T14:36:41.638Z,5.66
2024-02-24T14:39:08.844Z,5.75
2024-02-24T14:41:35.312Z,5.88
2024-02-24T14:44:01.834Z,6.02
2024-02-24T14:46:28.371Z,6.14
2024-02-24T14:48:55.143Z,6.08
2024-02-24T14:51:21.767Z,6.05
2024-02-24T14:53:52.013Z,6.04
2024-02-24T14:56:19.578Z,6.07
2024-02-24T14:58:46.027Z,6.06
2024-02-24T15:01:15.372Z,6.05
2024-02-24T15:03:45.195Z,6.05
2024-02-24T15:06:13.235Z,6.02
2024-02-24T15:08:39.831Z,5.96
2024-02-24T15:11:06.406Z,5.95
2024-02-24T15:13:34.476Z,5.93
2024-02-24T15:16:01.917Z,5.92
2024-02-24T15:18:28.811Z,5.92
2024-02-24T15:20:55.598Z,5.90
2024-02-24T15:23:22.402Z,5.88
2024-02-24T15:25:48.902Z,5.90
2024-02-24T15:28:15.480Z,5.90
2024-02-24T15:30:42.045Z,5.93
2024-02-24T15:33:08.873Z,5.92
2024-02-24T15:35:35.726Z,5.91
2024-02-24T15:38:02.396Z,5.92
2024-02-24T15:40:32.478Z,5.90
2024-02-24T15:43:02.341Z,5.86
2024-02-24T15:45:28.830Z,5.87
2024-02-24T15:47:55.428Z,5.84
2024-02-24T15:50:22.700Z,5.82
2024-02-24T15:52:49.407Z,5.82
2024-02-24T15:55:15.947Z,5.79
2024-02-24T15:57:45.051Z,5.79
2024-02-24T16:00:11.750Z,5.80
2024-02-24T16:02:39.404Z,5.80
2024-02-24T16:05:06.591Z,5.83
2024-02-24T16:07:33.058Z,5.85
2024-02-24T16:09:59.581Z,5.90
2024-02-24T16:12:28.357Z,5.92
2024-02-24T16:14:55.143Z,5.93
2024-02-24T16:17:23.332Z,5.92
2024-02-24T16:19:49.985Z,5.88
2024-02-24T16:22:16.590Z,5.82
2024-02-24T16:24:43.051Z,5.78
2024-02-24T16:27:09.569Z,5.68
2024-02-24T16:29:36.116Z,5.64
2024-02-24T16:32:03.554Z,5.58
2024-02-24T16:34:31.108Z,5.52
2024-02-24T16:36:57.600Z,5.50
2024-02-24T16:39:24.290Z,5.45
2024-02-24T16:41:50.891Z,5.38
2024-02-24T16:44:17.453Z,5.33
2024-02-24T16:46:44.172Z,5.28
2024-02-24T16:49:11.005Z,5.22
2024-02-24T16:51:37.622Z,5.17
2024-02-24T16:54:04.193Z,5.09
2024-02-24T16:56:32.512Z,5.06
2024-02-24T16:58:59.872Z,5.05
2024-02-24T17:01:26.422Z,4.98
2024-02-24T17:03:52.977Z,4.96
2024-02-24T17:06:19.626Z,4.91
2024-02-24T17:08:46.231Z,4.86
2024-02-24T17:11:17.565Z,4.82
2024-02-24T17:13:45.899Z,4.77
2024-02-24T17:16:12.418Z,4.75
2024-02-24T17:18:39.862Z,4.70
2024-02-24T17:21:06.543Z,4.65
2024-02-24T17:23:33.101Z,4.64
2024-02-24T17:26:02.366Z,4.61
2024-02-24T17:28:28.806Z,4.58
2024-02-24T17:30:55.954Z,4.57
2024-02-24T17:33:22.371Z,4.53
2024-02-24T17:35:49.016Z,4.51
2024-02-24T17:38:17.776Z,4.46
2024-02-24T17:40:44.324Z,4.44
2024-02-24T17:43:10.744Z,4.41
2024-02-24T17:45:37.217Z,4.40
2024-02-24T17:48:04.261Z,4.38
2024-02-24T17:50:30.961Z,4.38
2024-02-24T17:52:59.592Z,4.39
2024-02-24T17:55:26.254Z,4.36
2024-02-24T17:57:52.762Z,4.34
2024-02-24T18:00:20.746Z,4.32
2024-02-24T18:02:47.255Z,4.31
2024-02-24T18:05:14.011Z,4.29
2024-02-24T18:07:40.467Z,4.26
2024-02-24T18:10:07.349Z,4.23
2024-02-24T18:12:36.870Z,4.22
2024-02-24T18:15:04.315Z,4.20
2024-02-24T18:17:30.985Z,4.19
2024-02-24T18:19:57.483Z,4.17
2024-02-24T18:22:24.087Z,4.16
2024-02-24T18:24:50.597Z,4.16
2024-02-24T18:27:17.035Z,4.14
2024-02-24T18:29:45.364Z,4.15
2024-02-24T18:32:11.841Z,4.14
2024-02-24T18:34:38.961Z,4.12
2024-02-24T18:37:05.634Z,4.12
2024-02-24T18:39:32.176Z,4.10
2024-02-24T18:41:58.784Z,4.09
2024-02-24T18:44:25.328Z,4.08
2024-02-24T18:46:51.831Z,4.09
2024-02-24T18:49:18.466Z,4.08
2024-02-24T18:51:45.080Z,4.06
2024-02-24T18:54:11.701Z,4.02
2024-02-24T18:56:38.305Z,4.02
2024-02-24T18:59:06.354Z,4.01
2024-02-24T19:01:33.513Z,4.03
2024-02-24T19:04:00.186Z,4.05
2024-02-24T19:06:26.821Z,4.05
2024-02-24T19:08:53.480Z,4.06
2024-02-24T19:11:20.154Z,4.07
2024-02-24T19:13:46.772Z,4.09
2024-02-24T19:16:13.326Z,4.12
2024-02-24T19:18:39.992Z,4.16
2024-02-24T19:21:07.048Z,4.20
2024-02-24T19:23:34.787Z,4.22
2024-02-24T19:26:01.407Z,4.25
2024-02-24T19:28:27.919Z,4.26
2024-02-24T19:30:54.381Z,4.28
2024-02-24T19:33:21.679Z,4.32
2024-02-24T19:35:48.582Z,4.38
2024-02-24T19:38:15.086Z,4.44
2024-02-24T19:40:43.020Z,4.48
2024-02-24T19:43:09.747Z,4.51
2024-02-24T19:45:36.330Z,4.56
2024-02-24T19:48:03.102Z,4.59
2024-02-24T19:50:29.798Z,4.62
2024-02-24T19:52:56.287Z,4.65
2024-02-24T19:55:22.816Z,4.66
2024-02-24T19:57:49.336Z,4.70
2024-02-24T20:00:16.278Z,4.74
2024-02-24T20:02:43.236Z,4.76
2024-02-24T20:05:09.785Z,4.80
2024-02-24T20:07:37.604Z,4.82
2024-02-24T20:10:06.054Z,4.84
2024-02-24T20:12:32.787Z,4.87
2024-02-24T20:14:59.365Z,4.89
2024-02-24T20:17:25.957Z,4.91
2024-02-24T20:19:52.511Z,4.93
2024-02-24T20:22:18.961Z,4.95
2024-02-24T20:24:45.433Z,4.96
2024-02-24T20:27:11.908Z,4.97
2024-02-24T20:29:38.418Z,4.99
2024-02-24T20:32:05.167Z,5.00
2024-02-24T20:34:31.710Z,4.99
2024-02-24T20:36:58.229Z,4.99
2024-02-24T20:39:24.632Z,4.97
2024-02-24T20:41:51.082Z,4.99
2024-02-24T20:44:18.603Z,4.97
2024-02-24T20:46:46.019Z,4.97
2024-02-24T20:49:13.648Z,4.97
2024-02-24T20:51:40.208Z,4.95
2024-02-24T20:54:06.699Z,4.95
2024-02-24T20:56:33.492Z,4.96
2024-02-24T20:58:59.955Z,4.96
2024-02-24T21:01:28.174Z,4.96
2024-02-24T21:03:55.040Z,4.93
2024-02-24T21:06:21.538Z,4.92
2024-02-24T21:08:48.052Z,4.93
2024-02-24T21:11:14.562Z,4.94
2024-02-24T21:13:41.093Z,4.95
2024-02-24T21:16:07.829Z,4.96
2024-02-24T21:18:34.867Z,4.95
2024-02-24T21:21:01.481Z,4.96
2024-02-24T21:23:28.044Z,4.97
2024-02-24T21:25:54.457Z,4.99
2024-02-24T21:28:20.918Z,5.05
2024-02-24T21:30:48.464Z,5.06
2024-02-24T21:33:15.308Z,5.07
2024-02-24T21:35:42.521Z,5.10
2024-02-24T21:38:08.939Z,5.10
2024-02-24T21:40:35.528Z,5.14
2024-02-24T21:43:04.737Z,5.14
2024-02-24T21:45:32.157Z,5.13
2024-02-24T21:47:59.059Z,5.13
2024-02-24T21:50:25.890Z,5.13
2024-02-24T21:52:53.365Z,5.13
2024-02-24T21:55:21.264Z,5.16
2024-02-24T21:57:47.787Z,5.14
2024-02-24T22:00:19.772Z,5.13
2024-02-24T22:02:50.031Z,5.11
2024-02-24T22:05:16.616Z,5.14
2024-02-24T22:07:43.417Z,5.14
2024-02-24T22:10:10.220Z,5.14
2024-02-24T22:12:36.889Z,5.13
2024-02-24T22:15:03.868Z,5.15
2024-02-24T22:17:30.601Z,5.16
2024-02-24T22:19:57.230Z,5.18
2024-02-24T22:22:23.771Z,5.18
2024-02-24T22:24:50.226Z,5.20
2024-02-24T22:27:17.051Z,5.17
2024-02-24T22:29:43.862Z,5.18
2024-02-24T22:32:10.439Z,5.17
2024-02-24T22:34:37.142Z,5.14
2024-02-24T22:37:03.895Z,5.14
2024-02-24T22:39:30.473Z,5.14
2024-02-24T22:41:56.933Z,5.14
2024-02-24T22:44:23.387Z,5.13
2024-02-24T22:46:50.672Z,5.13
2024-02-24T22:49:17.441Z,5.11
2024-02-24T22:51:44.049Z,5.09
2024-02-24T22:54:11.739Z,5.08
2024-02-24T22:56:38.503Z,5.08
2024-02-24T22:59:05.150Z,5.10
2024-02-24T23:01:32.142Z,5.09
2024-02-24T23:03:59.372Z,5.09
2024-02-24T23:06:26.141Z,5.09
2024-02-24T23:08:52.909Z,5.08
2024-02-24T23:11:29.302Z,5.05
2024-02-24T23:14:00.261Z,5.06
2024-02-24T23:16:28.900Z,5.05
2024-02-24T23:18:56.991Z,5.06
2024-02-24T23:21:24.577Z,5.04
2024-02-24T23:23:51.135Z,5.03
2024-02-24T23:26:17.619Z,5.04
2024-02-24T23:28:45.172Z,5.03
2024-02-24T23:31:11.692Z,5.03
2024-02-24T23:33:38.269Z,5.02
2024-02-24T23:36:05.205Z,5.06
2024-02-24T23:38:31.822Z,5.06
2024-02-24T23:40:58.265Z,5.07
2024-02-24T23:43:24.696Z,5.06
2024-02-24T23:45:51.151Z,5.05
2024-02-24T23:48:17.716Z,5.06
2024-02-24T23:50:44.398Z,5.05
2024-02-24T23:53:10.951Z,5.03
2024-02-24T23:55:37.457Z,5.02
2024-02-24T23:58:06.667Z,5.00
